createdAt,value
2022-08-09T00:00:11.330Z,20.50
2022-08-09T00:02:49.276Z,20.45
2022-08-09T00:06:19.251Z,20.45
2022-08-09T00:08:33.133Z,20.32
2022-08-09T00:11:05.818Z,20.28
2022-08-09T00:13:51.712Z,20.28
2022-08-09T00:16:25.951Z,20.25
2022-08-09T00:18:56.405Z,20.22
2022-08-09T00:21:24.875Z,20.27
2022-08-09T00:24:00.097Z,20.20
2022-08-09T00:26:29.935Z,20.17
2022-08-09T00:29:03.012Z,20.20
2022-08-09T00:31:58.928Z,20.19
2022-08-09T00:34:20.384Z,20.10
2022-08-09T00:37:15.291Z,20.05
2022-08-09T00:40:09.724Z,19.99
2022-08-09T00:44:10.158Z,19.92
2022-08-09T00:45:23.240Z,19.76
2022-08-09T00:48:16.894Z,19.72
2022-08-09T00:50:47.411Z,19.71
2022-08-09T00:53:23.986Z,19.71
2022-08-09T00:56:04.226Z,19.70
2022-08-09T00:58:36.130Z,19.65
2022-08-09T01:01:15.924Z,19.63
2022-08-09T01:03:56.813Z,19.59
2022-08-09T01:06:54.479Z,19.57
2022-08-09T01:09:36.770Z,19.44
2022-08-09T01:12:15.584Z,19.39
2022-08-09T01:15:37.162Z,19.41
2022-08-09T01:18:35.134Z,19.41
2022-08-09T01:21:40.946Z,19.40
2022-08-09T01:24:50.525Z,19.42
2022-08-09T01:27:30.800Z,19.37
2022-08-09T01:30:02.390Z,19.32
2022-08-09T01:32:36.450Z,19.30
2022-08-09T01:35:37.621Z,19.32
2022-08-09T01:38:15.022Z,19.28
2022-08-09T01:41:05.752Z,19.28
2022-08-09T01:43:42.076Z,19.30
2022-08-09T01:46:36.303Z,19.33
2022-08-09T01:49:12.715Z,19.32
2022-08-09T01:51:53.933Z,19.33
2022-08-09T01:54:48.522Z,19.37
2022-08-09T01:57:52.847Z,19.38
2022-08-09T02:00:50.513Z,19.41
2022-08-09T02:03:19.715Z,19.44
2022-08-09T02:05:53.541Z,19.45
2022-08-09T02:08:57.025Z,19.43
2022-08-09T02:11:25.668Z,19.41
2022-08-09T02:14:15.030Z,19.39
2022-08-09T02:17:14.698Z,19.41
2022-08-09T02:19:45.042Z,19.38
2022-08-09T02:22:46.469Z,19.39
2022-08-09T02:25:27.519Z,19.38
2022-08-09T02:28:17.761Z,19.35
2022-08-09T02:30:51.747Z,19.28
2022-08-09T02:33:58.250Z,19.20
2022-08-09T02:36:18.513Z,19.15
2022-08-09T02:38:55.753Z,19.09
2022-08-09T02:41:38.643Z,19.16
2022-08-09T02:44:29.260Z,19.14
2022-08-09T02:47:04.271Z,19.10
2022-08-09T02:49:38.781Z,19.08
2022-08-09T02:52:36.801Z,19.05
2022-08-09T02:55:15.188Z,19.12
2022-08-09T02:58:00.376Z,19.15
2022-08-09T03:00:57.724Z,19.14
2022-08-09T03:03:37.190Z,19.09
2022-08-09T03:06:17.974Z,19.09
2022-08-09T03:08:47.492Z,19.00
2022-08-09T03:12:06.515Z,19.02
2022-08-09T03:14:12.941Z,19.00
2022-08-09T03:16:47.715Z,19.02
2022-08-09T03:19:52.646Z,19.05
2022-08-09T03:22:12.260Z,19.06
2022-08-09T03:25:05.880Z,19.06
2022-08-09T03:27:52.174Z,19.01
2022-08-09T03:30:46.121Z,18.96
2022-08-09T03:33:19.064Z,18.91
2022-08-09T03:36:37.041Z,18.86
2022-08-09T03:39:05.593Z,18.81
2022-08-09T03:41:48.251Z,18.85
2022-08-09T03:44:16.695Z,18.97
2022-08-09T03:46:47.036Z,19.09
2022-08-09T03:49:19.253Z,19.15
2022-08-09T03:51:58.193Z,19.21
2022-08-09T03:54:34.890Z,19.24
2022-08-09T03:57:18.649Z,19.30
2022-08-09T04:00:00.639Z,19.29
2022-08-09T04:02:40.312Z,19.32
2022-08-09T04:05:14.051Z,19.39
2022-08-09T04:07:58.553Z,19.40
2022-08-09T04:10:29.079Z,19.46
2022-08-09T04:13:03.827Z,19.53
2022-08-09T04:16:19.335Z,19.62
2022-08-09T04:19:15.750Z,19.65
2022-08-09T04:21:45.519Z,19.66
2022-08-09T04:24:21.313Z,19.68
2022-08-09T04:26:54.945Z,19.69
2022-08-09T04:29:24.463Z,19.69
2022-08-09T04:32:15.024Z,19.74
2022-08-09T04:34:47.747Z,19.74
2022-08-09T04:38:33.420Z,19.64
2022-08-09T04:41:02.548Z,19.43
2022-08-09T04:43:35.738Z,19.47
2022-08-09T04:46:03.927Z,19.49
2022-08-09T04:48:33.454Z,19.56
2022-08-09T04:51:27.356Z,19.63
2022-08-09T04:54:01.256Z,19.64
2022-08-09T04:56:30.576Z,19.64
2022-08-09T04:59:25.598Z,19.60
2022-08-09T05:02:27.444Z,19.48
2022-08-09T05:04:56.259Z,19.53
2022-08-09T05:07:29.216Z,19.60
2022-08-09T05:10:03.196Z,19.68
2022-08-09T05:12:55.825Z,19.73
2022-08-09T05:15:39.209Z,19.77
2022-08-09T05:18:37.820Z,19.85
2022-08-09T05:21:02.881Z,19.96
2022-08-09T05:24:03.986Z,20.09
2022-08-09T05:26:36.506Z,20.17
2022-08-09T05:29:06.789Z,20.21
2022-08-09T05:31:56.139Z,20.28
2022-08-09T05:34:30.064Z,20.40
2022-08-09T05:37:07.447Z,20.55
2022-08-09T05:39:42.863Z,20.64
2022-08-09T05:42:21.237Z,20.66
2022-08-09T05:44:54.162Z,20.73
2022-08-09T05:47:27.191Z,20.79
2022-08-09T05:50:30.021Z,20.81
2022-08-09T05:52:53.519Z,20.79
2022-08-09T05:55:47.163Z,20.75
2022-08-09T05:58:18.660Z,20.76
2022-08-09T06:00:46.446Z,20.82
2022-08-09T06:03:20.038Z,20.96
2022-08-09T06:05:58.043Z,21.11
2022-08-09T06:08:34.602Z,21.20
2022-08-09T06:11:16.457Z,21.32
2022-08-09T06:13:47.514Z,21.41
2022-08-09T06:16:25.479Z,21.37
2022-08-09T06:18:53.480Z,21.43
2022-08-09T06:21:21.878Z,21.49
2022-08-09T06:23:58.266Z,21.57
2022-08-09T06:26:30.091Z,21.61
2022-08-09T06:29:05.227Z,21.73
2022-08-09T06:32:36.152Z,21.80
2022-08-09T06:34:30.783Z,21.74
2022-08-09T06:36:59.735Z,21.66
2022-08-09T06:39:48.316Z,21.72
2022-08-09T06:42:24.431Z,21.76
2022-08-09T06:44:57.293Z,21.78
2022-08-09T06:47:30.330Z,21.92
2022-08-09T06:50:13.361Z,21.94
2022-08-09T06:53:05.010Z,22.01
2022-08-09T06:55:33.479Z,22.10
2022-08-09T06:58:04.436Z,22.18
2022-08-09T07:00:51.876Z,22.34
2022-08-09T07:03:27.907Z,22.41
2022-08-09T07:06:03.534Z,22.40
2022-08-09T07:08:37.415Z,22.42
2022-08-09T07:11:08.507Z,22.45
2022-08-09T07:14:03.576Z,22.58
2022-08-09T07:16:43.338Z,22.76
2022-08-09T07:19:18.659Z,22.99
2022-08-09T07:21:57.071Z,23.15
2022-08-09T07:24:32.267Z,23.26
2022-08-09T07:27:26.695Z,23.26
2022-08-09T07:30:00.778Z,23.31
2022-08-09T07:32:33.624Z,23.28
2022-08-09T07:35:08.191Z,23.35
2022-08-09T07:37:44.047Z,23.40
2022-08-09T07:40:16.950Z,23.38
2022-08-09T07:42:50.240Z,23.38
2022-08-09T07:45:23.613Z,23.48
2022-08-09T07:48:25.321Z,23.65
2022-08-09T07:51:09.969Z,23.69
2022-08-09T07:54:05.383Z,23.59
2022-08-09T07:56:44.747Z,23.43
2022-08-09T07:59:33.631Z,23.48
2022-08-09T08:02:03.388Z,23.49
2022-08-09T08:04:33.269Z,23.68
2022-08-09T08:07:15.140Z,23.82
2022-08-09T08:09:55.110Z,23.74
2022-08-09T08:12:43.758Z,24.05
2022-08-09T08:15:16.480Z,24.37
2022-08-09T08:17:54.846Z,24.54
2022-08-09T08:20:32.792Z,24.72
2022-08-09T08:23:16.087Z,24.88
2022-08-09T08:25:49.699Z,25.11
2022-08-09T08:28:32.001Z,25.27
2022-08-09T08:31:14.221Z,25.22
2022-08-09T08:33:53.161Z,25.09
2022-08-09T08:36:28.820Z,25.09
2022-08-09T08:39:22.898Z,25.03
2022-08-09T08:41:52.482Z,24.96
2022-08-09T08:44:22.955Z,24.98
2022-08-09T08:47:02.960Z,25.07
2022-08-09T08:49:46.386Z,25.09
2022-08-09T08:52:48.434Z,24.98
2022-08-09T08:55:05.584Z,25.02
2022-08-09T08:57:35.429Z,25.17
2022-08-09T09:00:12.791Z,25.31
2022-08-09T09:02:53.632Z,25.46
2022-08-09T09:05:32.980Z,25.70
2022-08-09T09:08:30.710Z,25.99
2022-08-09T09:11:05.696Z,26.18
2022-08-09T09:13:56.198Z,26.29
2022-08-09T09:16:33.710Z,26.30
2022-08-09T09:22:14.060Z,26.52
2022-08-09T09:24:47.041Z,26.52
2022-08-09T09:28:03.197Z,26.65
2022-08-09T09:30:26.112Z,26.59
2022-08-09T09:33:15.448Z,26.48
2022-08-09T09:36:11.725Z,26.63
2022-08-09T09:38:57.425Z,26.65
2022-08-09T09:41:32.921Z,26.70
2022-08-09T09:44:11.832Z,26.88
2022-08-09T09:46:45.911Z,27.10
2022-08-09T09:49:23.544Z,26.98
2022-08-09T09:52:16.703Z,27.07
2022-08-09T09:55:27.524Z,27.10
2022-08-09T09:58:03.254Z,26.85
2022-08-09T10:00:33.808Z,26.73
2022-08-09T10:03:11.799Z,26.67
2022-08-09T10:06:04.613Z,26.66
2022-08-09T10:08:43.315Z,26.70
2022-08-09T10:11:59.664Z,26.89
2022-08-09T10:14:33.093Z,27.01
2022-08-09T10:17:40.622Z,27.14
2022-08-09T10:20:01.825Z,27.33
2022-08-09T10:22:37.193Z,27.37
2022-08-09T10:25:11.742Z,27.11
2022-08-09T10:27:57.132Z,27.05
2022-08-09T10:34:04.937Z,27.27
2022-08-09T10:36:12.272Z,27.26
2022-08-09T10:38:57.110Z,27.35
2022-08-09T10:42:06.402Z,27.42
2022-08-09T10:45:10.705Z,27.48
2022-08-09T10:48:19.497Z,27.34
2022-08-09T10:51:01.820Z,27.20
2022-08-09T10:53:39.346Z,27.03
2022-08-09T10:56:22.948Z,26.77
2022-08-09T10:58:54.001Z,26.93
2022-08-09T11:03:11.986Z,27.19
2022-08-09T11:04:30.108Z,27.27
2022-08-09T11:07:00.717Z,27.36
2022-08-09T11:09:38.191Z,27.40
2022-08-09T11:12:17.131Z,27.43
2022-08-09T11:14:55.806Z,27.51
2022-08-09T11:17:24.583Z,27.44
2022-08-09T11:20:10.797Z,27.39
2022-08-09T11:22:44.809Z,27.27
2022-08-09T11:25:47.988Z,27.20
2022-08-09T11:28:34.051Z,27.17
2022-08-09T11:31:36.633Z,27.29
2022-08-09T11:34:14.491Z,27.39
2022-08-09T11:36:44.408Z,27.18
2022-08-09T11:39:13.040Z,27.03
2022-08-09T11:41:45.983Z,26.83
2022-08-09T11:44:16.723Z,26.75
2022-08-09T11:46:52.883Z,26.78
2022-08-09T11:50:55.557Z,26.83
2022-08-09T11:53:20.971Z,26.75
2022-08-09T11:55:52.666Z,26.71
2022-08-09T11:58:33.065Z,26.66
2022-08-09T12:01:08.310Z,26.46
2022-08-09T12:03:57.124Z,26.32
2022-08-09T12:09:35.741Z,26.22
2022-08-09T12:12:13.021Z,26.17
2022-08-09T12:15:04.054Z,26.06
2022-08-09T12:17:44.295Z,26.15
2022-08-09T12:20:26.091Z,26.19
2022-08-09T12:22:57.381Z,26.07
2022-08-09T12:25:35.853Z,26.03
2022-08-09T12:29:14.627Z,26.08
2022-08-09T12:31:10.802Z,26.21
2022-08-09T12:33:58.492Z,26.45
2022-08-09T12:36:33.454Z,26.62
2022-08-09T12:39:02.394Z,26.81
2022-08-09T12:41:39.314Z,27.02
2022-08-09T12:44:10.287Z,27.05
2022-08-09T12:46:48.803Z,27.16
2022-08-09T12:49:19.158Z,27.26
2022-08-09T12:52:02.371Z,27.38
2022-08-09T12:56:12.239Z,27.38
2022-08-09T12:57:42.920Z,27.49
2022-08-09T13:00:25.800Z,27.53
2022-08-09T13:02:56.577Z,27.28
2022-08-09T13:05:25.528Z,27.11
2022-08-09T13:08:14.436Z,26.95
2022-08-09T13:10:57.106Z,26.78
2022-08-09T13:14:40.663Z,26.74
2022-08-09T13:16:54.959Z,26.58
2022-08-09T13:20:09.646Z,26.36
2022-08-09T13:22:35.594Z,26.37
2022-08-09T13:25:54.416Z,26.52
2022-08-09T13:28:34.334Z,26.59
2022-08-09T13:32:09.860Z,26.38
2022-08-09T13:33:59.378Z,26.15
2022-08-09T13:36:40.188Z,26.02
2022-08-09T13:41:17.110Z,26.01
2022-08-09T13:42:13.977Z,26.24
2022-08-09T13:44:45.921Z,26.41
2022-08-09T13:47:31.182Z,26.46
2022-08-09T13:50:30.006Z,26.28
2022-08-09T13:52:59.303Z,26.33
2022-08-09T13:55:29.039Z,26.49
2022-08-09T13:57:59.714Z,26.53
2022-08-09T14:00:29.395Z,26.52
2022-08-09T14:03:03.156Z,26.62
2022-08-09T14:05:56.771Z,26.76
2022-08-09T14:08:33.392Z,26.84
2022-08-09T14:11:01.513Z,26.94
2022-08-09T14:14:24.720Z,27.07
2022-08-09T14:16:28.775Z,27.33
2022-08-09T14:18:59.396Z,27.55
2022-08-09T14:21:29.314Z,27.78
2022-08-09T14:24:01.413Z,27.93
2022-08-09T14:26:36.914Z,27.74
2022-08-09T14:29:25.784Z,27.38
2022-08-09T14:31:57.568Z,26.83
2022-08-09T14:34:32.241Z,26.49
2022-08-09T14:37:07.444Z,26.37
2022-08-09T14:39:46.500Z,26.27
2022-08-09T14:42:30.847Z,26.17
2022-08-09T14:46:39.172Z,25.85
2022-08-09T14:47:58.844Z,25.83
2022-08-09T14:50:44.894Z,25.79
2022-08-09T14:53:14.690Z,25.85
2022-08-09T14:56:57.583Z,26.01
2022-08-09T14:59:30.686Z,25.97
2022-08-09T15:02:09.040Z,25.83
2022-08-09T15:04:40.758Z,25.65
2022-08-09T15:07:09.979Z,25.32
2022-08-09T15:10:07.892Z,25.05
2022-08-09T15:12:26.397Z,24.79
2022-08-09T15:14:55.476Z,24.74
2022-08-09T15:17:31.111Z,24.74
2022-08-09T15:20:02.704Z,24.80
2022-08-09T15:22:33.106Z,24.88
2022-08-09T15:25:03.849Z,25.00
2022-08-09T15:27:47.803Z,25.09
2022-08-09T15:30:58.561Z,25.12
2022-08-09T15:33:15.187Z,25.11
2022-08-09T15:36:01.909Z,25.16
2022-08-09T15:38:34.439Z,25.11
2022-08-09T15:41:09.412Z,24.94
2022-08-09T15:43:41.761Z,24.86
2022-08-09T15:46:31.743Z,24.76
2022-08-09T15:49:22.015Z,24.66
2022-08-09T15:52:04.842Z,24.61
2022-08-09T15:54:44.664Z,24.51
2022-08-09T15:57:35.966Z,24.54
2022-08-09T16:03:29.256Z,24.44
2022-08-09T16:06:29.476Z,24.44
2022-08-09T16:09:01.276Z,24.41
2022-08-09T16:11:33.719Z,24.46
2022-08-09T16:14:06.813Z,24.42
2022-08-09T16:16:42.055Z,24.42
2022-08-09T16:19:16.577Z,24.41
2022-08-09T16:21:52.060Z,24.26
2022-08-09T16:24:33.120Z,24.22
2022-08-09T16:27:05.113Z,24.18
2022-08-09T16:29:36.832Z,24.16
2022-08-09T16:32:33.338Z,24.13
2022-08-09T16:34:57.814Z,24.11
2022-08-09T16:37:55.766Z,24.04
2022-08-09T16:40:20.619Z,24.02
2022-08-09T16:43:06.520Z,24.01
2022-08-09T16:45:43.806Z,24.05
2022-08-09T16:48:43.399Z,24.06
2022-08-09T16:51:08.213Z,24.05
2022-08-09T16:54:02.559Z,23.92
2022-08-09T16:56:31.093Z,23.81
2022-08-09T16:59:01.285Z,23.76
2022-08-09T17:01:35.691Z,23.71
2022-08-09T17:04:05.244Z,23.68
2022-08-09T17:08:40.292Z,23.65
2022-08-09T17:09:45.135Z,23.65
2022-08-09T17:12:10.374Z,23.61
2022-08-09T17:14:38.329Z,23.49
2022-08-09T17:17:26.439Z,23.50
2022-08-09T17:20:33.280Z,23.48
2022-08-09T17:22:50.282Z,23.46
2022-08-09T17:25:21.999Z,23.45
2022-08-09T17:27:54.535Z,23.44
2022-08-09T17:30:25.512Z,23.36
2022-08-09T17:33:04.749Z,23.34
2022-08-09T17:35:36.094Z,23.30
2022-08-09T17:38:32.553Z,23.29
2022-08-09T17:40:58.785Z,23.23
2022-08-09T17:43:33.929Z,23.16
2022-08-09T17:46:08.970Z,23.07
2022-08-09T17:48:51.605Z,23.05
2022-08-09T17:51:20.719Z,23.01
2022-08-09T17:53:53.093Z,22.98
2022-08-09T17:56:32.409Z,22.94
2022-08-09T17:59:09.121Z,22.89
2022-08-09T18:02:03.899Z,22.87
2022-08-09T18:04:28.556Z,22.81
2022-08-09T18:06:56.955Z,22.80
2022-08-09T18:09:35.787Z,22.74
2022-08-09T18:12:19.445Z,22.71
2022-08-09T18:14:54.969Z,22.67
2022-08-09T18:17:27.633Z,22.64
2022-08-09T18:20:56.441Z,22.51
2022-08-09T18:23:05.262Z,22.46
2022-08-09T18:25:52.972Z,22.42
2022-08-09T18:30:39.327Z,22.37
2022-08-09T18:31:15.068Z,22.37
2022-08-09T18:33:53.716Z,22.34
2022-08-09T18:36:25.863Z,22.29
2022-08-09T18:39:02.853Z,22.24
2022-08-09T18:41:34.902Z,22.19
2022-08-09T18:44:13.242Z,22.15
2022-08-09T18:46:50.726Z,22.12
2022-08-09T18:49:28.498Z,22.12
2022-08-09T18:52:00.253Z,22.10
2022-08-09T18:54:30.153Z,22.10
2022-08-09T18:57:05.416Z,22.08
2022-08-09T18:59:51.140Z,22.08
2022-08-09T19:02:42.717Z,22.07
2022-08-09T19:05:28.859Z,22.01
2022-08-09T19:08:10.569Z,21.99
2022-08-09T19:10:41.961Z,22.01
2022-08-09T19:13:22.262Z,22.00
2022-08-09T19:16:01.436Z,21.97
2022-08-09T19:18:34.043Z,21.94
2022-08-09T19:21:09.771Z,21.92
2022-08-09T19:24:37.924Z,21.88
2022-08-09T19:26:32.132Z,21.84
2022-08-09T19:29:03.309Z,21.85
2022-08-09T19:31:44.821Z,21.86
2022-08-09T19:34:22.298Z,21.90
2022-08-09T19:36:55.789Z,21.95
2022-08-09T19:39:29.270Z,21.95
2022-08-09T19:42:15.040Z,21.96
2022-08-09T19:44:49.256Z,21.95
2022-08-09T19:47:22.994Z,21.96
2022-08-09T19:50:06.677Z,21.93
2022-08-09T19:52:37.203Z,21.93
2022-08-09T19:55:19.587Z,21.93
2022-08-09T19:57:53.306Z,21.89
2022-08-09T20:00:21.175Z,21.89
2022-08-09T20:04:10.523Z,21.88
2022-08-09T20:05:46.306Z,21.85
2022-08-09T20:08:33.553Z,21.86
2022-08-09T20:11:04.878Z,21.84
2022-08-09T20:13:37.011Z,21.82
2022-08-09T20:16:37.405Z,21.80
2022-08-09T20:19:42.208Z,21.76
2022-08-09T20:21:56.932Z,21.72
2022-08-09T20:24:31.822Z,21.67
2022-08-09T20:27:05.661Z,21.63
2022-08-09T20:29:39.908Z,21.61
2022-08-09T20:32:33.238Z,21.57
2022-08-09T20:35:01.411Z,21.49
2022-08-09T20:37:37.845Z,21.47
2022-08-09T20:40:26.913Z,21.43
2022-08-09T20:43:18.911Z,21.40
2022-08-09T20:45:59.757Z,21.33
2022-08-09T20:48:31.470Z,21.29
2022-08-09T20:51:01.306Z,21.24
2022-08-09T20:53:36.281Z,21.17
2022-08-09T20:56:20.544Z,21.09
2022-08-09T20:58:57.886Z,21.04
2022-08-09T21:01:35.174Z,20.98
2022-08-09T21:05:56.200Z,20.93
2022-08-09T21:07:10.914Z,20.94
2022-08-09T21:09:46.055Z,20.94
2022-08-09T21:15:15.378Z,20.82
2022-08-09T21:18:11.318Z,20.75
2022-08-09T21:20:35.392Z,20.73
2022-08-09T21:23:04.337Z,20.64
2022-08-09T21:25:56.049Z,20.58
2022-08-09T21:28:35.582Z,20.57
2022-08-09T21:31:13.553Z,20.56
2022-08-09T21:33:52.484Z,20.54
2022-08-09T21:36:23.357Z,20.53
2022-08-09T21:38:57.958Z,20.48
2022-08-09T21:42:00.304Z,20.45
2022-08-09T21:44:33.196Z,20.43
2022-08-09T21:47:08.589Z,20.46
2022-08-09T21:49:39.722Z,20.44
2022-08-09T21:52:17.276Z,20.38
2022-08-09T21:55:04.404Z,20.35
2022-08-09T21:57:38.302Z,20.30
2022-08-09T22:00:31.735Z,20.27
2022-08-09T22:03:12.563Z,20.22
2022-08-09T22:05:54.950Z,20.19
2022-08-09T22:08:25.824Z,20.20
2022-08-09T22:11:50.538Z,20.20
2022-08-09T22:13:43.930Z,20.20
2022-08-09T22:16:12.171Z,20.19
2022-08-09T22:18:44.027Z,20.19
2022-08-09T22:21:27.542Z,20.17
2022-08-09T22:24:16.865Z,20.12
2022-08-09T22:26:47.866Z,20.10
2022-08-09T22:29:32.294Z,20.04
2022-08-09T22:32:30.093Z,19.98
2022-08-09T22:35:05.947Z,19.97
2022-08-09T22:37:40.356Z,19.98
2022-08-09T22:40:09.649Z,19.96
2022-08-09T22:42:38.803Z,19.97
2022-08-09T22:48:11.603Z,19.96
2022-08-09T22:48:11.987Z,19.94
2022-08-09T22:50:53.070Z,19.92
2022-08-09T22:53:21.158Z,19.92
2022-08-09T22:56:30.268Z,19.92
2022-08-09T22:58:41.704Z,19.88
2022-08-09T23:01:10.480Z,19.86
2022-08-09T23:04:03.273Z,19.83
2022-08-09T23:06:48.018Z,19.78
2022-08-09T23:09:18.378Z,19.77
2022-08-09T23:11:49.577Z,19.73
2022-08-09T23:14:17.738Z,19.74
2022-08-09T23:17:05.471Z,19.71
2022-08-09T23:20:06.064Z,19.69
2022-08-09T23:22:21.054Z,19.66
2022-08-09T23:24:48.923Z,19.66
2022-08-09T23:27:17.459Z,19.62
2022-08-09T23:29:45.247Z,19.59
2022-08-09T23:32:13.249Z,19.55
2022-08-09T23:34:41.063Z,19.48
2022-08-09T23:37:09.421Z,19.45
2022-08-09T23:39:37.211Z,19.45
2022-08-09T23:42:05.352Z,19.45
2022-08-09T23:44:33.068Z,19.42
2022-08-09T23:47:00.951Z,19.40
2022-08-09T23:49:28.722Z,19.38
2022-08-09T23:51:56.702Z,19.29
2022-08-09T23:54:26.533Z,19.26
2022-08-09T23:56:58.671Z,19.19
2022-08-09T23:59:46.387Z,19.16
